Strona główna
METAR-TAF:

METAR-TAF

Lotnisko :

Port lotniczy Londyn-Biggin Hill

Londyn Biggin Hill, Anglia

Szerokość geograficzna: 51-19N, Długość geograficzna: 000-02E, wysokość: 183 m

Aktualna obserwacja pogody

Raport powstał 15 minut temu, godzina 21:20 UTC
Wiatr 2 kt od wschodnio-północny wschód
Temperatura 5°C
Wilgotność 100%
Ciśnienie 1026 hPa
Widzialność: 6000 m
Rozproszone chmury na wysokości 400 ft
Przerywane chmury na wysokości 1500 ft

METAR: EGKB 232120Z 06002KT 6000 SCT004 BKN015 05/05 Q1026

czas: 21:35 (21:35 UTC)

Prognoza

Raport powstał 35 minut temu, godzina 21:00 UTC
Prognoza ważna od 23 godzina 21 UTC do 23 godzina 23 UTC
Wiatr 3 kt od północno-północny zachód
Widzialność 10 km lub więcej
Przerywane chmury na wysokości 1500 ft
Przejściowo
od 23 godzina 21 UTC do 23 godzina 23 UTC
Widzialność: 8000 m
Przerywane chmury na wysokości 900 ft

TAF: EGKB 232100Z 2321/2323 34003KT 9999 BKN015 TEMPO 2321/2323 8000 BKN009

Obserwacja i prognoza pogody dla ponad 4000 lotnisk (raport METAR i TAF).

Dostępne stacje oznaczono żółtymi i czerwonymi punktami na mapie.

Najedź kursorem aby zobaczyć nazwę stacji.

Kliknij aby zobaczyć obserwacje i prognozy pogody.

Aby zmienić mapę: kliknij na zielony przycisk z czarnym krzyżykiem, aby powiększyć; na zielony przycisk z myślnikiem, aby pomniejszyć; na zielone strzałki, aby przejść do map sąsiednich.


METAR-TAF: